Time,TemperatureF,DewpointF,PressureIn,WindDirection,WindDirectionDegrees,WindSpeedMPH,WindSpeedGustMPH,Humidity,HourlyPrecipIn,Conditions,Clouds,dailyrainin,SoftwareType,DateUTC
2013-01-19 00:04:00,29.0,26.0,30.37,East,80,0.0,0.0,90,0.00,,,0.04,,2013-01-19 05:04:00,
2013-01-19 00:12:00,29.0,26.0,30.37,East,80,0.0,0.0,90,0.00,,,0.04,,2013-01-19 05:12:00,
2013-01-19 00:23:00,29.0,26.0,30.37,East,80,0.0,0.0,90,0.00,,,0.04,,2013-01-19 05:23:00,
2013-01-19 00:33:00,29.0,27.0,30.35,East,80,0.0,0.0,91,0.00,,,0.04,,2013-01-19 05:33:00,
2013-01-19 00:43:00,29.0,27.0,30.35,East,80,0.0,0.0,91,0.00,,,0.04,,2013-01-19 05:43:00,
2013-01-19 00:53:00,29.0,27.0,30.35,East,80,0.0,0.0,91,0.00,,,0.04,,2013-01-19 05:53:00,
2013-01-19 01:03:00,29.0,26.0,30.35,SSE,158,0.0,0.0,89,0.00,,,0.04,,2013-01-19 06:03:00,
2013-01-19 01:12:00,29.0,26.0,30.35,SSE,158,0.0,0.0,89,0.00,,,0.04,,2013-01-19 06:12:00,
2013-01-19 01:23:00,29.0,26.0,30.35,SSE,158,0.0,0.0,89,0.00,,,0.04,,2013-01-19 06:23:00,
2013-01-19 01:33:00,29.0,26.0,30.35,SSE,158,0.0,0.0,90,0.00,,,0.04,,2013-01-19 06:33:00,
2013-01-19 01:42:00,29.0,27.0,30.34,SSE,158,0.0,0.0,92,0.00,,,0.04,,2013-01-19 06:42:00,
2013-01-19 01:43:00,29.0,26.0,30.35,SSE,158,0.0,0.0,90,0.00,,,0.04,,2013-01-19 06:43:00,
2013-01-19 01:53:00,29.0,26.0,30.35,SSE,158,0.0,0.0,90,0.00,,,0.04,,2013-01-19 06:53:00,
2013-01-19 02:02:00,29.0,27.0,30.34,SSE,158,0.0,0.0,92,0.00,,,0.04,,2013-01-19 07:02:00,
2013-01-19 02:12:00,29.0,27.0,30.34,SSE,158,0.0,0.0,92,0.00,,,0.04,,2013-01-19 07:12:00,
2013-01-19 02:23:00,29.0,27.0,30.34,SSE,158,0.0,0.0,92,0.00,,,0.04,,2013-01-19 07:23:00,
2013-01-19 02:33:00,29.0,27.0,30.34,SSE,158,0.0,0.0,92,0.00,,,0.04,,2013-01-19 07:33:00,
2013-01-19 03:33:00,27.0,26.0,30.35,SSE,158,0.0,0.0,96,0.00,,,0.04,,2013-01-19 08:33:00,
2013-01-19 03:43:00,27.0,26.0,30.35,SSE,158,0.0,0.0,96,0.00,,,0.04,,2013-01-19 08:43:00,
2013-01-19 03:53:00,27.0,26.0,30.35,SSE,158,0.0,0.0,96,0.00,,,0.04,,2013-01-19 08:53:00,
2013-01-19 04:02:00,27.0,26.0,30.35,SSW,205,0.0,2.0,96,0.00,,,0.04,,2013-01-19 09:02:00,
2013-01-19 04:12:00,27.0,26.0,30.35,SSW,205,0.0,2.0,96,0.00,,,0.04,,2013-01-19 09:12:00,
2013-01-19 04:23:00,27.0,26.0,30.35,SSW,205,0.0,2.0,96,0.00,,,0.04,,2013-01-19 09:23:00,
2013-01-19 04:33:00,27.0,26.0,30.35,SSW,206,0.0,0.0,95,0.00,,,0.04,,2013-01-19 09:33:00,
2013-01-19 04:42:00,27.0,26.0,30.35,SSW,206,0.0,0.0,95,0.00,,,0.04,,2013-01-19 09:42:00,
2013-01-19 04:53:00,27.0,26.0,30.35,SSW,206,0.0,0.0,95,0.00,,,0.04,,2013-01-19 09:53:00,
2013-01-19 05:02:00,27.0,26.0,30.35,SSW,206,0.0,0.0,95,0.00,,,0.04,,2013-01-19 10:02:00,
2013-01-19 05:33:00,28.0,26.0,30.32,SSW,203,0.0,0.0,91,0.00,,,0.04,,2013-01-19 10:33:00,
2013-01-19 05:43:00,28.0,26.0,30.32,SSW,203,0.0,0.0,91,0.00,,,0.04,,2013-01-19 10:43:00,
2013-01-19 05:53:00,28.0,26.0,30.32,SSW,203,0.0,0.0,91,0.00,,,0.04,,2013-01-19 10:53:00,
2013-01-19 06:03:00,27.0,26.0,30.32,SSW,203,0.0,0.0,95,0.00,,,0.04,,2013-01-19 11:03:00,
2013-01-19 06:12:00,27.0,26.0,30.32,SSW,203,0.0,0.0,95,0.00,,,0.04,,2013-01-19 11:12:00,
2013-01-19 07:48:00,26.0,24.0,30.33,SSW,203,0.0,0.0,92,0.00,,,0.04,,2013-01-19 12:48:00,
2013-01-19 08:03:00,27.0,24.0,30.32,SSW,203,0.0,0.0,90,0.00,,,0.04,,2013-01-19 13:03:00,
2013-01-19 08:12:00,27.0,24.0,30.32,SSW,203,0.0,0.0,90,0.00,,,0.04,,2013-01-19 13:12:00,
2013-01-19 08:23:00,27.0,24.0,30.32,SSW,203,0.0,0.0,90,0.00,,,0.04,,2013-01-19 13:23:00,
2013-01-19 08:33:00,27.0,25.0,30.33,SSW,203,0.0,1.0,93,0.00,,,0.04,,2013-01-19 13:33:00,
2013-01-19 08:43:00,27.0,25.0,30.33,SSW,203,0.0,1.0,93,0.00,,,0.04,,2013-01-19 13:43:00,
2013-01-19 08:54:00,27.0,25.0,30.33,SSW,203,0.0,1.0,93,0.00,,,0.04,,2013-01-19 13:54:00,
2013-01-19 09:03:00,27.0,26.0,30.33,SSW,203,0.0,0.0,95,0.00,,,0.04,,2013-01-19 14:03:00,
2013-01-19 09:12:00,27.0,26.0,30.33,SSW,203,0.0,0.0,95,0.00,,,0.04,,2013-01-19 14:12:00,
2013-01-19 09:23:00,27.0,26.0,30.33,SSW,203,0.0,0.0,95,0.00,,,0.04,,2013-01-19 14:23:00,
2013-01-19 09:34:00,28.0,26.0,30.34,SSW,203,0.0,0.0,91,0.00,,,0.04,,2013-01-19 14:34:00,
2013-01-19 09:43:00,28.0,26.0,30.34,SSW,203,0.0,0.0,91,0.00,,,0.04,,2013-01-19 14:43:00,
2013-01-19 09:54:00,28.0,26.0,30.34,SSW,203,0.0,0.0,91,0.00,,,0.04,,2013-01-19 14:54:00,
2013-01-19 10:03:00,32.0,29.0,30.33,NE,56,0.0,1.0,87,0.00,,,0.00,,2013-01-19 15:03:00,
2013-01-19 10:13:00,32.0,29.0,30.33,NE,56,0.0,1.0,87,0.00,,,0.00,,2013-01-19 15:13:00,
2013-01-19 10:23:00,32.0,29.0,30.33,NE,56,0.0,1.0,87,0.00,,,0.00,,2013-01-19 15:23:00,
2013-01-19 10:33:00,35.0,29.0,30.32,NE,44,0.0,2.0,78,0.00,,,0.00,,2013-01-19 15:33:00,
2013-01-19 10:42:00,40.0,31.0,30.32,ENE,76,0.0,0.0,70,0.00,,,0.00,,2013-01-19 15:42:00,
2013-01-19 10:43:00,35.0,29.0,30.32,NE,44,0.0,2.0,78,0.00,,,0.00,,2013-01-19 15:43:00,
2013-01-19 10:53:00,35.0,29.0,30.32,NE,44,0.0,2.0,78,0.00,,,0.00,,2013-01-19 15:53:00,
2013-01-19 11:03:00,40.0,31.0,30.32,ENE,76,0.0,0.0,70,0.00,,,0.00,,2013-01-19 16:03:00,
2013-01-19 11:13:00,40.0,31.0,30.32,ENE,76,0.0,0.0,70,0.00,,,0.00,,2013-01-19 16:13:00,
2013-01-19 11:23:00,40.0,31.0,30.32,ENE,76,0.0,0.0,70,0.00,,,0.00,,2013-01-19 16:23:00,
2013-01-19 11:33:00,40.0,31.0,30.32,ENE,76,0.0,0.0,70,0.00,,,0.00,,2013-01-19 16:33:00,
2013-01-19 12:38:00,46.0,31.0,30.24,North,360,0.0,0.0,55,0.00,,,0.00,,2013-01-19 17:38:00,
2013-01-19 12:50:00,46.0,31.0,30.24,North,360,0.0,0.0,55,0.00,,,0.00,,2013-01-19 17:50:00,
2013-01-19 12:55:00,46.0,31.0,30.24,North,360,0.0,0.0,55,0.00,,,0.00,,2013-01-19 17:55:00,
2013-01-19 13:12:00,51.0,31.0,30.22,East,82,0.0,1.0,47,0.00,,,0.00,,2013-01-19 18:12:00,
2013-01-19 13:29:00,51.0,31.0,30.22,East,82,0.0,1.0,47,0.00,,,0.00,,2013-01-19 18:29:00,
2013-01-19 13:36:00,55.0,26.0,30.20,WNW,284,0.0,4.0,33,0.00,,,0.00,,2013-01-19 18:36:00,
2013-01-19 13:45:00,55.0,26.0,30.20,WNW,284,0.0,4.0,33,0.00,,,0.00,,2013-01-19 18:45:00,
2013-01-19 14:04:00,55.0,26.0,30.20,WNW,284,0.0,4.0,33,0.00,,,0.00,,2013-01-19 19:04:00,
2013-01-19 14:10:00,54.0,25.0,30.18,ENE,75,1.0,7.0,32,0.00,,,0.00,,2013-01-19 19:10:00,
2013-01-19 14:31:00,54.0,25.0,30.18,ENE,75,1.0,7.0,32,0.00,,,0.00,,2013-01-19 19:31:00,
2013-01-19 14:59:00,52.0,27.0,30.17,East,89,2.0,6.0,37,0.00,,,0.00,,2013-01-19 19:59:00,
2013-01-19 15:11:00,51.0,26.0,30.16,East,82,2.0,5.0,37,0.00,,,0.00,,2013-01-19 20:11:00,
2013-01-19 15:19:00,51.0,26.0,30.16,East,82,2.0,5.0,37,0.00,,,0.00,,2013-01-19 20:19:00,
2013-01-19 15:27:00,51.0,26.0,30.16,East,82,2.0,5.0,37,0.00,,,0.00,,2013-01-19 20:27:00,
2013-01-19 15:39:00,51.0,28.0,30.15,SE,127,1.0,7.0,40,0.00,,,0.00,,2013-01-19 20:39:00,
2013-01-19 15:48:00,51.0,28.0,30.15,SE,127,1.0,7.0,40,0.00,,,0.00,,2013-01-19 20:48:00,
2013-01-19 15:59:00,51.0,28.0,30.15,SE,127,1.0,7.0,40,0.00,,,0.00,,2013-01-19 20:59:00,
2013-01-19 16:07:00,50.0,27.0,30.12,ENE,72,0.0,6.0,41,0.00,,,0.00,,2013-01-19 21:07:00,
2013-01-19 16:14:00,50.0,27.0,30.12,ENE,72,0.0,6.0,41,0.00,,,0.00,,2013-01-19 21:14:00,
2013-01-19 16:29:00,50.0,27.0,30.12,ENE,72,0.0,6.0,41,0.00,,,0.00,,2013-01-19 21:29:00,
2013-01-19 16:46:00,49.0,30.0,30.11,SW,233,0.0,3.0,48,0.00,,,0.00,,2013-01-19 21:46:00,
2013-01-19 17:02:00,49.0,30.0,30.11,SW,233,0.0,3.0,48,0.00,,,0.00,,2013-01-19 22:02:00,
2013-01-19 17:15:00,47.0,31.0,30.12,ENE,64,0.0,3.0,53,0.00,,,0.00,,2013-01-19 22:15:00,
2013-01-19 17:28:00,47.0,31.0,30.12,ENE,64,0.0,3.0,53,0.00,,,0.00,,2013-01-19 22:28:00,
2013-01-19 17:35:00,45.0,30.0,30.13,SSW,212,3.0,6.0,56,0.00,,,0.00,,2013-01-19 22:35:00,
2013-01-19 17:47:00,45.0,30.0,30.13,SSW,212,3.0,6.0,56,0.00,,,0.00,,2013-01-19 22:47:00,
2013-01-19 17:59:00,45.0,30.0,30.13,SSW,212,3.0,6.0,56,0.00,,,0.00,,2013-01-19 22:59:00,
2013-01-19 18:13:00,43.0,29.0,30.13,East,93,1.0,7.0,58,0.00,,,0.00,,2013-01-19 23:13:00,
2013-01-19 18:28:00,43.0,29.0,30.13,East,93,1.0,7.0,58,0.00,,,0.00,,2013-01-19 23:28:00,
2013-01-19 18:35:00,42.0,29.0,30.14,ESE,102,0.0,3.0,59,0.00,,,0.00,,2013-01-19 23:35:00,
2013-01-19 19:08:00,42.0,29.0,30.14,ESE,102,0.0,3.0,59,0.00,,,0.00,,2013-01-20 00:08:00,
2013-01-19 20:12:00,38.0,27.0,30.13,ESE,123,0.0,3.0,65,0.00,,,0.00,,2013-01-20 01:12:00,
2013-01-19 20:39:00,38.0,27.0,30.13,ESE,123,0.0,3.0,65,0.00,,,0.00,,2013-01-20 01:39:00,
2013-01-19 21:05:00,38.0,27.0,30.13,ESE,123,0.0,3.0,65,0.00,,,0.00,,2013-01-20 02:05:00,
2013-01-19 21:38:00,37.0,26.0,30.12,South,178,1.0,4.0,65,0.00,,,0.00,,2013-01-20 02:38:00,
2013-01-19 21:45:00,37.0,26.0,30.12,South,178,1.0,4.0,65,0.00,,,0.00,,2013-01-20 02:45:00,
2013-01-19 21:59:00,37.0,26.0,30.12,South,178,1.0,4.0,65,0.00,,,0.00,,2013-01-20 02:59:00,
2013-01-19 22:09:00,37.0,26.0,30.11,East,83,0.0,2.0,65,0.00,,,0.00,,2013-01-20 03:09:00,
2013-01-19 22:15:00,37.0,26.0,30.11,East,83,0.0,2.0,65,0.00,,,0.00,,2013-01-20 03:15:00,
2013-01-19 22:26:00,37.0,26.0,30.11,East,83,0.0,2.0,65,0.00,,,0.00,,2013-01-20 03:26:00,
2013-01-19 22:39:00,37.0,27.0,30.09,SSE,150,0.0,0.0,66,0.00,,,0.00,,2013-01-20 03:39:00,
2013-01-19 22:45:00,37.0,27.0,30.09,SSE,150,0.0,0.0,66,0.00,,,0.00,,2013-01-20 03:45:00,
2013-01-19 22:58:00,37.0,27.0,30.09,SSE,150,0.0,0.0,66,0.00,,,0.00,,2013-01-20 03:58:00,
2013-01-19 23:05:00,36.0,26.0,30.09,SE,138,0.0,0.0,68,0.00,,,0.00,,2013-01-20 04:05:00,
2013-01-19 23:15:00,36.0,26.0,30.09,SE,138,0.0,0.0,68,0.00,,,0.00,,2013-01-20 04:15:00,
2013-01-19 23:28:00,36.0,26.0,30.09,SE,138,0.0,0.0,68,0.00,,,0.00,,2013-01-20 04:28:00,
2013-01-19 23:37:00,35.0,26.0,30.11,SE,138,0.0,0.0,70,0.00,,,0.00,,2013-01-20 04:37:00,
2013-01-19 23:44:00,35.0,26.0,30.11,SE,138,0.0,0.0,70,0.00,,,0.00,,2013-01-20 04:44:00,
2013-01-19 23:59:00,35.0,26.0,30.11,SE,138,0.0,0.0,70,0.00,,,0.00,,2013-01-20 04:59:00,